PWSweather.com
Personal Weather Stations
Station Observations
SMETHPA
Wilcat Hollow, Upper Marvin Creek, Smethport, PA 16749

Wilcat Hollow, Upper Marvin CreekSmethport, PA 16749

Lat: 41.7178, Lon: -78.5583

Elevation: 1644

Station Type: Davis Vantage Pro 2 Plus

http://www.mckeanweather.com

Latest ConditionsUpdated 8:50:01 AM EST Tuesday, Jan 23, 2018
Currently Today's Max Today's Min Today's Average
Temperature 37.8°F3.2°C 42.7°F5.9°C 36.9°F2.7°C 38.6°F3.7°C
Dew Point 37.5°F3.1°C 42.4°F5.8°C 36.7°F2.6°C 38.4°F3.6°C
Winds Calm Calm 3.0 mph SW4.8 kmh SW - 0.5 mph 0.8 kmh
Wind Gusts 4.0 mph6.4 kmh 10.0 mph16.1 kmh - -
Humidity 99% 100% 99% 99%
Pressure 29.65 in1004.1 mb 29.81 in1009.5 mb 29.64 in1003.7 mb -
Precipitation - 0.23 in5.8 mm - -
Hour Temp Dew Point Humidity Winds Wind Gusts Pressure Precip Precip Rate Daily Precip Total
08:50 AM 37.8°F3.2°C 37.5°F3.1°C 99% Calm Calm 4.0 mph6.4 kmh 29.65 in1004.1 mb 0.03 in0.8 mm 0.00 in0.0 mm 0.23 in5.8 mm
08:40 AM 37.7°F3.2°C 37.4°F3.0°C 99% 1.0 mph SW1.6 kmh SW 3.0 mph4.8 kmh 29.65 in1004.1 mb 0.03 in0.8 mm 0.00 in0.0 mm 0.23 in5.8 mm
08:30 AM 37.2°F2.9°C 36.9°F2.7°C 99% Calm Calm 1.0 mph1.6 kmh 29.66 in1004.4 mb 0.03 in0.8 mm 0.00 in0.0 mm 0.23 in5.8 mm
08:20 AM 37.0°F2.8°C 36.7°F2.6°C 99% Calm Calm 2.0 mph3.2 kmh 29.68 in1005.1 mb 0.03 in0.8 mm 0.00 in0.0 mm 0.23 in5.8 mm
08:10 AM 37.1°F2.8°C 36.8°F2.7°C 99% Calm Calm 2.0 mph3.2 kmh 29.68 in1005.1 mb 0.04 in1.0 mm 0.12 in3.0 mm 0.23 in5.8 mm
08:00 AM 37.1°F2.8°C 36.8°F2.7°C 99% 1.0 mph SW1.6 kmh SW 3.0 mph4.8 kmh 29.67 in1004.7 mb 0.02 in0.5 mm 0.01 in0.3 mm 0.21 in5.3 mm
07:50 AM 37.5°F3.1°C 37.2°F2.9°C 99% Calm Calm 3.0 mph4.8 kmh 29.66 in1004.4 mb 0.01 in0.3 mm 0.00 in0.0 mm 0.20 in5.1 mm
07:40 AM 37.3°F2.9°C 37.0°F2.8°C 99% Calm Calm 3.0 mph4.8 kmh 29.64 in1003.7 mb 0.01 in0.3 mm 0.00 in0.0 mm 0.20 in5.1 mm
07:30 AM 37.0°F2.8°C 36.7°F2.6°C 99% 1.0 mph SW1.6 kmh SW 3.0 mph4.8 kmh 29.67 in1004.7 mb 0.01 in0.3 mm 0.00 in0.0 mm 0.20 in5.1 mm
07:20 AM 36.9°F2.7°C 36.9°F2.7°C 100% 1.0 mph SW1.6 kmh SW 4.0 mph6.4 kmh 29.67 in1004.7 mb 0.02 in0.5 mm 0.00 in0.0 mm 0.20 in5.1 mm
07:10 AM 37.3°F2.9°C 37.0°F2.8°C 99% Calm Calm 2.0 mph3.2 kmh 29.66 in1004.4 mb 0.04 in1.0 mm 0.00 in0.0 mm 0.19 in4.8 mm
07:00 AM 37.5°F3.1°C 37.2°F2.9°C 99% Calm Calm 1.0 mph1.6 kmh 29.66 in1004.4 mb 0.04 in1.0 mm 0.00 in0.0 mm 0.19 in4.8 mm
06:50 AM 37.6°F3.1°C 37.3°F2.9°C 99% Calm Calm -- 29.67 in1004.7 mb 0.05 in1.3 mm 0.00 in0.0 mm 0.19 in4.8 mm
06:40 AM 37.7°F3.2°C 37.4°F3.0°C 99% Calm Calm 2.0 mph3.2 kmh 29.68 in1005.1 mb 0.06 in1.5 mm 0.00 in0.0 mm 0.19 in4.8 mm
06:30 AM 38.1°F3.4°C 37.8°F3.2°C 99% Calm Calm -- 29.68 in1005.1 mb 0.07 in1.8 mm 0.00 in0.0 mm 0.19 in4.8 mm
06:20 AM 38.6°F3.7°C 38.3°F3.5°C 99% Calm Calm -- 29.67 in1004.7 mb 0.08 in2.0 mm 0.18 in4.6 mm 0.18 in4.6 mm
06:10 AM 38.9°F3.8°C 38.9°F3.8°C 100% Calm Calm 1.0 mph1.6 kmh 29.69 in1005.4 mb 0.05 in1.3 mm 0.00 in0.0 mm 0.15 in3.8 mm
06:00 AM 39.5°F4.2°C 39.2°F4.0°C 99% 1.0 mph SW1.6 kmh SW 2.0 mph3.2 kmh 29.68 in1005.1 mb 0.06 in1.5 mm 0.00 in0.0 mm 0.15 in3.8 mm
05:50 AM 39.7°F4.3°C 39.4°F4.1°C 99% Calm Calm 2.0 mph3.2 kmh 29.68 in1005.1 mb 0.06 in1.5 mm 0.00 in0.0 mm 0.14 in3.6 mm
05:40 AM 40.4°F4.7°C 40.1°F4.5°C 99% Calm Calm 1.0 mph1.6 kmh 29.70 in1005.8 mb 0.06 in1.5 mm 0.12 in3.0 mm 0.13 in3.3 mm
05:30 AM 40.8°F4.9°C 40.8°F4.9°C 100% Calm Calm 1.0 mph1.6 kmh 29.70 in1005.8 mb 0.04 in1.0 mm 0.00 in0.0 mm 0.11 in2.8 mm
05:20 AM 41.8°F5.4°C 41.5°F5.3°C 99% Calm Calm 1.0 mph1.6 kmh 29.70 in1005.8 mb 0.06 in1.5 mm 0.00 in0.0 mm 0.10 in2.5 mm
05:10 AM 42.3°F5.7°C 42.0°F5.6°C 99% Calm Calm 2.0 mph3.2 kmh 29.70 in1005.8 mb 0.09 in2.3 mm 0.06 in1.5 mm 0.10 in2.5 mm
05:00 AM 42.6°F5.9°C 42.3°F5.7°C 99% 1.0 mph SW1.6 kmh SW 2.0 mph3.2 kmh 29.71 in1006.1 mb 0.08 in2.0 mm 0.01 in0.3 mm 0.09 in2.3 mm
04:50 AM 42.7°F5.9°C 42.4°F5.8°C 99% 3.0 mph SW4.8 kmh SW 6.0 mph9.7 kmh 29.72 in1006.4 mb 0.07 in1.8 mm 0.06 in1.5 mm 0.08 in2.0 mm
04:40 AM 41.8°F5.4°C 41.5°F5.3°C 99% 3.0 mph SW4.8 kmh SW 10.0 mph16.1 kmh 29.72 in1006.4 mb 0.06 in1.5 mm 0.06 in1.5 mm 0.07 in1.8 mm
04:30 AM 39.6°F4.2°C 39.3°F4.1°C 99% 2.0 mph WSW3.2 kmh WSW 8.0 mph12.9 kmh 29.70 in1005.8 mb 0.05 in1.3 mm 0.12 in3.0 mm 0.06 in1.5 mm
04:20 AM 39.4°F4.1°C 39.1°F3.9°C 99% 1.0 mph WSW1.6 kmh WSW 4.0 mph6.4 kmh 29.66 in1004.4 mb 0.03 in0.8 mm 0.18 in4.6 mm 0.04 in1.0 mm
04:10 AM 39.6°F4.2°C 39.3°F4.1°C 99% 1.0 mph WSW1.6 kmh WSW 5.0 mph8.0 kmh 29.64 in1003.7 mb 0.00 in0.0 mm 0.00 in0.0 mm 0.01 in0.3 mm
04:00 AM 39.4°F4.1°C 39.1°F3.9°C 99% 1.0 mph WSW1.6 kmh WSW 3.0 mph4.8 kmh 29.64 in1003.7 mb 0.00 in0.0 mm 0.00 in0.0 mm 0.01 in0.3 mm
03:50 AM 38.8°F3.8°C 38.5°F3.6°C 99% 1.0 mph WSW1.6 kmh WSW 4.0 mph6.4 kmh 29.65 in1004.1 mb 0.00 in0.0 mm 0.00 in0.0 mm 0.01 in0.3 mm
03:40 AM 38.7°F3.7°C 38.4°F3.6°C 99% Calm Calm 5.0 mph8.0 kmh 29.66 in1004.4 mb 0.00 in0.0 mm 0.00 in0.0 mm 0.01 in0.3 mm
03:30 AM 38.8°F3.8°C 38.5°F3.6°C 99% Calm Calm 2.0 mph3.2 kmh 29.67 in1004.7 mb 0.00 in0.0 mm 0.00 in0.0 mm 0.01 in0.3 mm
03:20 AM 39.0°F3.9°C 38.7°F3.7°C 99% Calm Calm 2.0 mph3.2 kmh 29.68 in1005.1 mb 0.00 in0.0 mm 0.00 in0.0 mm 0.01 in0.3 mm
03:10 AM 39.3°F4.1°C 39.0°F3.9°C 99% Calm Calm 2.0 mph3.2 kmh 29.68 in1005.1 mb 0.00 in0.0 mm 0.00 in0.0 mm 0.01 in0.3 mm
03:00 AM 39.5°F4.2°C 39.2°F4.0°C 99% 1.0 mph WSW1.6 kmh WSW 4.0 mph6.4 kmh 29.70 in1005.8 mb 0.00 in0.0 mm 0.00 in0.0 mm 0.01 in0.3 mm
02:50 AM 39.0°F3.9°C 38.7°F3.7°C 99% 1.0 mph WSW1.6 kmh WSW 5.0 mph8.0 kmh 29.71 in1006.1 mb 0.00 in0.0 mm 0.00 in0.0 mm 0.01 in0.3 mm
02:40 AM 38.8°F3.8°C 38.5°F3.6°C 99% 2.0 mph WSW3.2 kmh WSW 6.0 mph9.7 kmh 29.71 in1006.1 mb 0.00 in0.0 mm 0.00 in0.0 mm 0.01 in0.3 mm
02:30 AM 38.3°F3.5°C 38.0°F3.3°C 99% 1.0 mph WSW1.6 kmh WSW 4.0 mph6.4 kmh 29.73 in1006.8 mb 0.00 in0.0 mm 0.00 in0.0 mm 0.01 in0.3 mm
02:20 AM 38.0°F3.3°C 38.0°F3.3°C 100% 2.0 mph WSW3.2 kmh WSW 3.0 mph4.8 kmh 29.72 in1006.4 mb 0.00 in0.0 mm 0.00 in0.0 mm 0.01 in0.3 mm
02:10 AM 37.9°F3.3°C 37.9°F3.3°C 100% Calm Calm 6.0 mph9.7 kmh 29.73 in1006.8 mb 0.00 in0.0 mm 0.00 in0.0 mm 0.01 in0.3 mm
02:00 AM 37.9°F3.3°C 37.9°F3.3°C 100% Calm Calm -- 29.74 in1007.1 mb 0.01 in0.3 mm 0.00 in0.0 mm 0.01 in0.3 mm
01:50 AM 37.8°F3.2°C 37.8°F3.2°C 100% Calm Calm 1.0 mph1.6 kmh 29.75 in1007.5 mb 0.01 in0.3 mm 0.00 in0.0 mm 0.01 in0.3 mm
01:40 AM 37.7°F3.2°C 37.7°F3.2°C 100% Calm Calm 2.0 mph3.2 kmh 29.75 in1007.5 mb 0.01 in0.3 mm 0.00 in0.0 mm 0.01 in0.3 mm
01:30 AM 37.8°F3.2°C 37.8°F3.2°C 100% Calm Calm 2.0 mph3.2 kmh 29.76 in1007.8 mb 0.01 in0.3 mm 0.00 in0.0 mm 0.01 in0.3 mm
01:20 AM 37.9°F3.3°C 37.9°F3.3°C 100% Calm Calm 2.0 mph3.2 kmh 29.77 in1008.1 mb 0.01 in0.3 mm 0.00 in0.0 mm 0.01 in0.3 mm
01:10 AM 38.0°F3.3°C 38.0°F3.3°C 100% Calm Calm 2.0 mph3.2 kmh 29.76 in1007.8 mb 0.01 in0.3 mm 0.06 in1.5 mm 0.01 in0.3 mm
01:00 AM 38.2°F3.4°C 37.9°F3.3°C 99% Calm Calm 2.0 mph3.2 kmh 29.77 in1008.1 mb 0.00 in0.0 mm 0.00 in0.0 mm 0.01 in0.3 mm
12:50 AM 38.0°F3.3°C 38.0°F3.3°C 100% Calm Calm -- 29.77 in1008.1 mb 0.00 in0.0 mm 0.00 in0.0 mm 0.01 in0.3 mm
12:40 AM 37.9°F3.3°C 37.9°F3.3°C 100% Calm Calm 2.0 mph3.2 kmh 29.78 in1008.5 mb 0.00 in0.0 mm 0.00 in0.0 mm 0.01 in0.3 mm
12:30 AM 37.8°F3.2°C 37.8°F3.2°C 100% Calm Calm 2.0 mph3.2 kmh 29.79 in1008.8 mb 0.01 in0.3 mm 0.00 in0.0 mm 0.01 in0.3 mm
12:20 AM 37.5°F3.1°C 37.5°F3.1°C 100% 1.0 mph WSW1.6 kmh WSW 3.0 mph4.8 kmh 29.80 in1009.1 mb 0.01 in0.3 mm 0.00 in0.0 mm 0.01 in0.3 mm
12:10 AM 37.4°F3.0°C 37.4°F3.0°C 100% 1.0 mph WSW1.6 kmh WSW 3.0 mph4.8 kmh 29.81 in1009.5 mb 0.01 in0.3 mm 0.00 in0.0 mm 0.01 in0.3 mm
12:00 AM 37.4°F3.0°C 37.4°F3.0°C 100% Calm Calm 4.0 mph6.4 kmh 29.81 in1009.5 mb 0.01 in0.3 mm 0.00 in0.0 mm 0.01 in0.3 mm